createdAt,value
2023-05-09T00:01:27.923Z,5.70
2023-05-09T00:04:34.422Z,4.97
2023-05-09T00:07:40.015Z,4.57
2023-05-09T00:10:45.420Z,4.93
2023-05-09T00:13:51.255Z,4.90
2023-05-09T00:16:59.522Z,4.95
2023-05-09T00:20:09.887Z,3.90
2023-05-09T00:23:15.378Z,4.88
2023-05-09T00:26:22.162Z,4.60
2023-05-09T00:29:28.124Z,3.97
2023-05-09T00:32:34.411Z,4.80
2023-05-09T00:35:40.640Z,5.03
2023-05-09T00:38:46.577Z,4.88
2023-05-09T00:41:53.780Z,5.75
2023-05-09T00:45:00.553Z,4.55
2023-05-09T00:48:06.829Z,4.68
2023-05-09T00:51:12.542Z,4.65
2023-05-09T00:54:18.308Z,4.88
2023-05-09T00:57:23.930Z,4.60
2023-05-09T01:00:29.616Z,4.78
2023-05-09T01:03:36.631Z,4.47
2023-05-09T01:06:58.283Z,5.40
2023-05-09T01:10:42.901Z,5.20
2023-05-09T01:13:49.230Z,5.47
2023-05-09T01:17:21.808Z,5.50
2023-05-09T01:20:46.464Z,5.00
2023-05-09T01:24:08.698Z,5.70
2023-05-09T01:27:33.917Z,6.03
2023-05-09T01:30:45.528Z,6.18
2023-05-09T01:33:56.908Z,6.40
2023-05-09T01:37:05.846Z,5.75
2023-05-09T01:40:17.183Z,6.30
2023-05-09T01:46:31.069Z,6.38
2023-05-09T01:49:39.785Z,5.70
2023-05-09T01:52:48.485Z,6.80
2023-05-09T01:55:55.500Z,5.57
2023-05-09T01:59:03.127Z,6.47
2023-05-09T02:02:08.813Z,5.38
2023-05-09T02:05:16.523Z,6.00
2023-05-09T02:08:23.263Z,5.35
2023-05-09T02:11:29.085Z,5.30
2023-05-09T02:14:34.862Z,5.55
2023-05-09T02:17:40.745Z,5.97
2023-05-09T02:20:48.097Z,5.72
2023-05-09T02:23:54.082Z,5.35
2023-05-09T02:27:01.191Z,4.72
2023-05-09T02:30:12.587Z,5.00
2023-05-09T02:36:24.814Z,5.13
2023-05-09T02:39:30.823Z,6.10
2023-05-09T02:42:36.909Z,5.55
2023-05-09T02:45:42.897Z,5.90
2023-05-09T02:48:49.731Z,6.82
2023-05-09T02:51:55.689Z,6.75
2023-05-09T02:55:01.738Z,5.75
2023-05-09T02:58:14.227Z,6.28
2023-05-09T03:01:23.175Z,6.30
2023-05-09T03:04:28.771Z,6.43
2023-05-09T03:07:34.568Z,5.72
2023-05-09T03:10:40.744Z,6.55
2023-05-09T03:13:46.228Z,6.85
2023-05-09T03:16:51.850Z,6.65
2023-05-09T03:20:05.944Z,6.93
2023-05-09T03:23:11.289Z,7.43
2023-05-09T03:26:17.091Z,6.97
2023-05-09T03:29:24.177Z,6.63
2023-05-09T03:32:29.858Z,6.15
2023-05-09T03:35:35.834Z,7.45
2023-05-09T03:38:41.687Z,6.93
2023-05-09T03:41:47.358Z,9.48
2023-05-09T03:44:53.432Z,7.65
2023-05-09T03:48:00.266Z,6.93
2023-05-09T03:51:05.621Z,7.07
2023-05-09T03:54:16.181Z,7.22
2023-05-09T03:57:21.941Z,7.30
2023-05-09T04:00:30.505Z,6.28
2023-05-09T04:03:45.356Z,7.38
2023-05-09T04:06:52.924Z,7.43
2023-05-09T04:09:58.784Z,6.97
2023-05-09T04:13:04.654Z,7.63
2023-05-09T04:16:10.887Z,6.95
2023-05-09T04:19:17.812Z,7.05
2023-05-09T04:22:23.576Z,6.95
2023-05-09T04:25:31.424Z,7.03
2023-05-09T04:28:37.497Z,7.70
2023-05-09T04:31:44.530Z,8.00
2023-05-09T04:34:52.195Z,6.80
2023-05-09T04:38:03.206Z,7.05
2023-05-09T04:41:09.272Z,8.10
2023-05-09T04:44:14.686Z,6.35
2023-05-09T04:47:21.258Z,7.70
2023-05-09T04:50:26.430Z,6.97
2023-05-09T04:53:32.259Z,7.10
2023-05-09T04:56:39.471Z,9.40
2023-05-09T04:59:44.919Z,6.38
2023-05-09T05:02:53.845Z,7.82
2023-05-09T05:05:59.907Z,6.57
2023-05-09T05:09:06.192Z,8.10
2023-05-09T05:12:12.326Z,7.05
2023-05-09T05:15:20.962Z,7.05
2023-05-09T05:18:27.941Z,7.22
2023-05-09T05:21:33.807Z,7.10
2023-05-09T05:24:39.742Z,6.78
2023-05-09T05:27:45.670Z,7.07
2023-05-09T05:30:51.814Z,7.45
2023-05-09T05:33:57.088Z,7.95
2023-05-09T05:37:03.249Z,7.90
2023-05-09T05:40:09.416Z,7.07
2023-05-09T05:43:17.797Z,7.07
2023-05-09T05:46:22.971Z,7.72
2023-05-09T05:49:28.821Z,7.43
2023-05-09T05:52:35.017Z,7.15
2023-05-09T05:55:40.850Z,7.78
2023-05-09T05:58:46.566Z,7.85
2023-05-09T06:01:52.054Z,7.53
2023-05-09T06:04:58.044Z,8.02
2023-05-09T06:08:04.244Z,8.35
2023-05-09T06:11:11.591Z,8.18
2023-05-09T06:14:16.822Z,7.00
2023-05-09T06:17:24.580Z,7.95
2023-05-09T06:20:30.281Z,8.27
2023-05-09T06:23:44.679Z,7.70
2023-05-09T06:26:57.072Z,6.85
2023-05-09T06:30:11.243Z,7.70
2023-05-09T06:33:24.419Z,7.00
2023-05-09T06:36:30.989Z,7.05
2023-05-09T06:39:36.916Z,7.90
2023-05-09T06:42:42.312Z,6.93
2023-05-09T06:45:48.104Z,7.85
2023-05-09T06:48:53.492Z,7.80
2023-05-09T06:51:58.924Z,7.25
2023-05-09T06:55:05.231Z,7.13
2023-05-09T06:58:12.328Z,7.60
2023-05-09T07:01:18.378Z,7.68
2023-05-09T07:04:24.239Z,7.07
2023-05-09T07:07:29.759Z,7.43
2023-05-09T07:10:36.309Z,7.25
2023-05-09T07:13:42.260Z,6.88
2023-05-09T07:16:48.326Z,7.63
2023-05-09T07:19:54.314Z,7.35
2023-05-09T07:23:00.225Z,6.85
2023-05-09T07:26:05.679Z,8.10
2023-05-09T07:29:11.666Z,6.85
2023-05-09T07:32:17.570Z,6.32
2023-05-09T07:35:23.411Z,6.32
2023-05-09T07:38:29.037Z,6.03
2023-05-09T07:41:34.683Z,6.40
2023-05-09T07:44:40.381Z,6.25
2023-05-09T07:47:45.813Z,6.63
2023-05-09T07:50:51.742Z,6.00
2023-05-09T07:53:57.788Z,7.38
2023-05-09T07:57:03.440Z,5.72
2023-05-09T08:00:10.971Z,5.72
2023-05-09T08:03:21.025Z,6.22
2023-05-09T08:06:26.813Z,6.65
2023-05-09T08:09:32.765Z,6.20
2023-05-09T08:12:39.266Z,6.07
2023-05-09T08:15:45.292Z,7.20
2023-05-09T08:18:51.002Z,7.07
2023-05-09T08:21:56.534Z,5.72
2023-05-09T08:25:01.828Z,6.60
2023-05-09T08:28:07.157Z,6.05
2023-05-09T08:31:12.548Z,6.30
2023-05-09T08:34:18.066Z,6.22
2023-05-09T08:37:23.281Z,6.75
2023-05-09T08:40:29.074Z,6.78
2023-05-09T08:43:35.514Z,6.50
2023-05-09T08:46:44.894Z,5.75
2023-05-09T08:49:51.782Z,5.57
2023-05-09T08:52:57.708Z,6.25
2023-05-09T08:56:04.387Z,5.95
2023-05-09T08:59:10.792Z,5.40
2023-05-09T09:02:17.914Z,5.57
2023-05-09T09:05:40.079Z,5.47
2023-05-09T09:08:49.303Z,5.93
2023-05-09T09:11:55.714Z,5.90
2023-05-09T09:15:06.213Z,6.15
2023-05-09T09:18:22.974Z,5.68
2023-05-09T09:21:28.640Z,5.78
2023-05-09T09:24:34.797Z,5.80
2023-05-09T09:27:42.190Z,6.15
2023-05-09T09:30:50.254Z,6.60
2023-05-09T09:34:02.896Z,7.10
2023-05-09T09:37:08.514Z,8.15
2023-05-09T09:40:15.056Z,6.45
2023-05-09T09:43:20.777Z,7.15
2023-05-09T09:46:26.555Z,7.43
2023-05-09T09:49:32.123Z,7.20
2023-05-09T09:52:37.704Z,7.45
2023-05-09T09:55:53.576Z,7.43
2023-05-09T09:59:18.950Z,7.82
2023-05-09T10:02:25.119Z,8.20
2023-05-09T10:05:32.769Z,7.40
2023-05-09T10:08:38.320Z,8.30
2023-05-09T10:11:43.771Z,7.75
2023-05-09T10:14:49.940Z,7.78
2023-05-09T10:17:58.804Z,7.35
2023-05-09T10:21:07.993Z,6.78
2023-05-09T10:24:14.072Z,6.10
2023-05-09T10:27:23.128Z,6.22
2023-05-09T10:30:34.249Z,6.30
2023-05-09T10:33:48.903Z,6.53
2023-05-09T10:36:55.158Z,7.20
2023-05-09T10:40:03.405Z,7.40
2023-05-09T10:43:08.639Z,6.72
2023-05-09T10:46:14.990Z,6.68
2023-05-09T10:49:21.229Z,7.88
2023-05-09T10:52:33.936Z,7.50
2023-05-09T10:55:52.488Z,8.27
2023-05-09T10:59:02.375Z,7.18
2023-05-09T11:02:16.313Z,7.72
2023-05-09T11:05:22.017Z,7.72
2023-05-09T11:08:29.830Z,8.18
2023-05-09T11:11:51.671Z,8.25
2023-05-09T11:15:08.244Z,8.15
2023-05-09T11:18:13.775Z,8.00
2023-05-09T11:21:20.790Z,7.00
2023-05-09T11:24:31.336Z,7.57
2023-05-09T11:27:47.135Z,8.02
2023-05-09T11:30:54.242Z,6.72
2023-05-09T11:34:05.269Z,7.88
2023-05-09T11:37:12.184Z,7.43
2023-05-09T11:40:20.065Z,8.73
2023-05-09T11:43:26.004Z,8.60
2023-05-09T11:46:31.927Z,8.32
2023-05-09T11:49:37.636Z,8.82
2023-05-09T11:52:43.737Z,7.95
2023-05-09T11:55:49.881Z,8.07
2023-05-09T11:58:55.700Z,9.05
2023-05-09T12:02:07.877Z,7.65
2023-05-09T12:05:18.824Z,6.63
2023-05-09T12:08:28.718Z,7.18
2023-05-09T12:11:35.297Z,6.97
2023-05-09T12:14:41.893Z,4.43
2023-05-09T12:17:50.479Z,5.50
2023-05-09T12:20:57.662Z,5.43
2023-05-09T12:24:02.834Z,6.40
2023-05-09T12:27:08.211Z,6.10
2023-05-09T12:30:16.314Z,6.22
2023-05-09T12:33:22.590Z,5.50
2023-05-09T12:36:28.069Z,5.93
2023-05-09T12:39:34.126Z,4.80
2023-05-09T12:42:43.270Z,5.72
2023-05-09T12:45:52.969Z,6.50
2023-05-09T12:48:58.452Z,5.45
2023-05-09T12:52:05.066Z,6.82
2023-05-09T12:55:14.155Z,6.25
2023-05-09T12:58:19.581Z,7.25
2023-05-09T13:01:29.520Z,6.88
2023-05-09T13:04:34.922Z,6.82
2023-05-09T13:07:48.961Z,5.78
2023-05-09T13:11:04.035Z,6.43
2023-05-09T13:15:21.805Z,7.32
2023-05-09T13:18:27.145Z,7.68
2023-05-09T13:21:33.733Z,5.95
2023-05-09T13:24:38.916Z,5.53
2023-05-09T13:27:44.179Z,4.82
2023-05-09T13:30:49.577Z,6.50
2023-05-09T13:33:54.818Z,6.43
2023-05-09T13:37:00.024Z,5.57
2023-05-09T13:40:06.242Z,5.82
2023-05-09T13:43:11.607Z,7.43
2023-05-09T13:46:17.145Z,7.30
2023-05-09T13:49:22.735Z,8.13
2023-05-09T13:52:28.680Z,6.38
2023-05-09T13:55:34.863Z,7.55
2023-05-09T13:58:39.769Z,6.45
2023-05-09T14:01:45.325Z,5.70
2023-05-09T14:04:50.977Z,6.60
2023-05-09T14:07:56.526Z,5.25
2023-05-09T14:11:02.090Z,5.60
2023-05-09T14:14:07.743Z,5.10
2023-05-09T14:17:13.683Z,5.60
2023-05-09T14:20:19.797Z,4.90
2023-05-09T14:23:25.404Z,4.15
2023-05-09T14:26:31.289Z,3.95
2023-05-09T14:29:38.665Z,4.43
2023-05-09T14:32:44.716Z,3.90
2023-05-09T14:35:50.046Z,3.28
2023-05-09T14:38:55.071Z,3.67
2023-05-09T14:42:00.496Z,3.58
2023-05-09T14:45:07.520Z,4.03
2023-05-09T14:48:14.537Z,3.33
2023-05-09T14:51:22.039Z,3.55
2023-05-09T14:54:27.763Z,2.63
2023-05-09T14:57:34.002Z,3.08
2023-05-09T15:00:39.540Z,3.03
2023-05-09T15:03:44.687Z,2.85
2023-05-09T15:06:50.111Z,2.80
2023-05-09T15:09:55.439Z,2.72
2023-05-09T15:13:02.698Z,2.70
2023-05-09T15:16:09.105Z,2.13
2023-05-09T15:19:15.037Z,2.28
2023-05-09T15:22:20.507Z,2.33
2023-05-09T15:25:25.987Z,2.40
2023-05-09T15:28:31.592Z,1.65
2023-05-09T15:31:37.190Z,1.73
2023-05-09T15:35:00.853Z,2.13
2023-05-09T15:38:08.695Z,2.15
2023-05-09T15:41:15.039Z,2.13
2023-05-09T15:44:20.909Z,2.05
2023-05-09T15:47:26.105Z,2.42
2023-05-09T15:50:31.978Z,1.73
2023-05-09T15:53:37.103Z,1.90
2023-05-09T15:56:42.449Z,2.00
2023-05-09T15:59:48.096Z,1.90
2023-05-09T16:02:53.350Z,2.65
2023-05-09T16:05:58.991Z,1.95
2023-05-09T16:09:05.154Z,2.28
2023-05-09T16:12:10.872Z,2.13
2023-05-09T16:15:16.170Z,2.10
2023-05-09T16:18:21.770Z,3.13
2023-05-09T16:21:29.386Z,2.50
2023-05-09T16:24:34.874Z,3.03
2023-05-09T16:27:40.163Z,2.30
2023-05-09T16:30:45.632Z,2.30
2023-05-09T16:33:50.788Z,2.15
2023-05-09T16:36:56.072Z,2.35
2023-05-09T16:40:02.084Z,2.65
2023-05-09T16:43:07.716Z,2.15
2023-05-09T16:46:16.598Z,2.72
2023-05-09T16:49:24.314Z,2.10
2023-05-09T16:52:30.765Z,2.30
2023-05-09T16:55:36.295Z,2.28
2023-05-09T16:58:42.123Z,2.92
2023-05-09T17:01:47.867Z,2.25
2023-05-09T17:04:53.322Z,2.33
2023-05-09T17:07:59.213Z,3.72
2023-05-09T17:11:05.711Z,3.20
2023-05-09T17:14:11.232Z,2.15
2023-05-09T17:17:17.921Z,3.13
2023-05-09T17:20:23.364Z,3.45
2023-05-09T17:23:29.219Z,3.25
2023-05-09T17:26:34.223Z,3.33
2023-05-09T17:29:39.511Z,2.90
2023-05-09T17:32:45.151Z,2.65
2023-05-09T17:35:50.596Z,3.35
2023-05-09T17:38:56.407Z,2.60
2023-05-09T17:42:02.130Z,2.10
2023-05-09T17:45:08.413Z,2.67
2023-05-09T17:48:14.801Z,3.08
2023-05-09T17:51:20.461Z,2.45
2023-05-09T17:54:26.251Z,2.90
2023-05-09T17:57:32.005Z,2.92
2023-05-09T18:00:37.837Z,3.15
2023-05-09T18:03:42.882Z,2.65
2023-05-09T18:06:51.544Z,3.53
2023-05-09T18:09:57.397Z,2.75
2023-05-09T18:13:03.724Z,2.40
2023-05-09T18:16:09.304Z,2.95
2023-05-09T18:19:15.091Z,2.50
2023-05-09T18:22:21.875Z,2.97
2023-05-09T18:25:27.756Z,2.58
2023-05-09T18:28:39.467Z,2.47
2023-05-09T18:31:45.032Z,2.78
2023-05-09T18:34:50.621Z,2.75
2023-05-09T18:37:56.367Z,2.83
2023-05-09T18:41:02.368Z,2.53
2023-05-09T18:44:08.938Z,2.35
2023-05-09T18:47:15.480Z,3.63
2023-05-09T18:50:20.919Z,2.67
2023-05-09T18:53:27.093Z,2.80
2023-05-09T18:56:39.452Z,2.60
2023-05-09T18:59:46.222Z,2.67
2023-05-09T19:02:52.061Z,3.63
2023-05-09T19:05:58.888Z,3.28
2023-05-09T19:09:04.780Z,2.75
2023-05-09T19:12:10.088Z,3.00
2023-05-09T19:15:15.243Z,2.80
2023-05-09T19:18:20.639Z,3.20
2023-05-09T19:21:26.230Z,3.10
2023-05-09T19:24:32.982Z,3.08
2023-05-09T19:27:38.533Z,3.05
2023-05-09T19:30:43.914Z,2.80
2023-05-09T19:33:50.000Z,3.40
2023-05-09T19:36:55.513Z,2.92
2023-05-09T19:40:01.433Z,3.35
2023-05-09T19:43:07.072Z,3.22
2023-05-09T19:46:12.700Z,2.97
2023-05-09T19:49:18.683Z,3.20
2023-05-09T19:52:24.567Z,3.38
2023-05-09T19:55:30.183Z,3.65
2023-05-09T19:58:36.092Z,3.70
2023-05-09T20:01:41.428Z,3.90
2023-05-09T20:04:50.113Z,3.80
2023-05-09T20:07:55.601Z,4.82
2023-05-09T20:11:00.582Z,4.68
2023-05-09T20:14:05.930Z,4.72
2023-05-09T20:17:11.558Z,4.22
2023-05-09T20:20:17.907Z,4.97
2023-05-09T20:23:23.540Z,5.03
2023-05-09T20:26:29.890Z,4.30
2023-05-09T20:29:35.041Z,4.38
2023-05-09T20:32:40.844Z,4.50
2023-05-09T20:35:46.234Z,5.32
2023-05-09T20:38:51.812Z,5.50
2023-05-09T20:42:02.521Z,5.97
2023-05-09T20:45:09.086Z,4.90
2023-05-09T20:48:14.377Z,5.00
2023-05-09T20:51:19.631Z,6.43
2023-05-09T20:54:26.058Z,6.38
2023-05-09T20:57:31.818Z,6.28
2023-05-09T21:00:37.071Z,6.05
2023-05-09T21:03:42.701Z,6.45
2023-05-09T21:06:48.477Z,6.60
2023-05-09T21:09:54.481Z,6.47
2023-05-09T21:13:00.017Z,7.00
2023-05-09T21:16:06.311Z,5.45
2023-05-09T21:19:12.109Z,6.38
2023-05-09T21:22:18.009Z,6.60
2023-05-09T21:25:23.575Z,6.63
2023-05-09T21:28:29.759Z,6.15
2023-05-09T21:31:35.837Z,7.45
2023-05-09T21:34:41.295Z,6.53
2023-05-09T21:37:46.863Z,7.55
2023-05-09T21:40:52.270Z,7.30
2023-05-09T21:43:57.642Z,6.90
2023-05-09T21:47:02.908Z,6.72
2023-05-09T21:50:08.925Z,6.43
2023-05-09T21:53:14.864Z,7.38
2023-05-09T21:56:20.185Z,8.07
2023-05-09T21:59:26.869Z,7.70
2023-05-09T22:02:32.263Z,8.23
2023-05-09T22:05:38.052Z,7.68
2023-05-09T22:08:43.032Z,8.55
2023-05-09T22:11:48.201Z,8.07
2023-05-09T22:14:56.653Z,8.82
2023-05-09T22:18:02.625Z,8.57
2023-05-09T22:21:08.025Z,9.20
2023-05-09T22:24:13.324Z,9.98
2023-05-09T22:27:19.406Z,9.73
2023-05-09T22:30:25.278Z,8.02
2023-05-09T22:33:30.475Z,8.95
2023-05-09T22:36:35.934Z,9.10
2023-05-09T22:39:41.269Z,8.38
2023-05-09T22:42:47.948Z,8.70
2023-05-09T22:45:53.692Z,9.00
2023-05-09T22:48:58.761Z,7.93
2023-05-09T22:52:04.561Z,7.90
2023-05-09T22:55:09.953Z,7.70
2023-05-09T22:58:16.512Z,8.02
2023-05-09T23:01:21.907Z,7.85
2023-05-09T23:04:27.581Z,7.63
2023-05-09T23:07:33.375Z,8.23
2023-05-09T23:10:38.691Z,7.82
2023-05-09T23:13:44.286Z,7.45
2023-05-09T23:16:51.188Z,7.68
2023-05-09T23:19:57.041Z,6.80
2023-05-09T23:23:04.100Z,7.53
2023-05-09T23:26:10.621Z,7.25
2023-05-09T23:29:16.073Z,8.48
2023-05-09T23:32:21.502Z,7.03
2023-05-09T23:35:27.547Z,7.70
2023-05-09T23:38:32.821Z,7.03
2023-05-09T23:41:38.609Z,6.75
2023-05-09T23:44:44.162Z,6.40
2023-05-09T23:47:49.673Z,6.38
2023-05-09T23:50:55.516Z,6.15
2023-05-09T23:54:01.164Z,6.72
2023-05-09T23:57:06.987Z,5.80
